createdAt,value
2022-08-14T00:02:31.494Z,21.01
2022-08-14T00:07:34.667Z,20.83
2022-08-14T00:12:56.608Z,20.88
2022-08-14T00:17:58.344Z,20.92
2022-08-14T00:23:14.659Z,20.92
2022-08-14T00:28:21.219Z,20.85
2022-08-14T00:33:22.126Z,20.66
2022-08-14T00:38:52.921Z,20.47
2022-08-14T00:43:53.917Z,20.37
2022-08-14T00:48:58.342Z,20.30
2022-08-14T00:53:59.887Z,20.29
2022-08-14T00:59:01.227Z,20.10
2022-08-14T01:04:05.571Z,19.97
2022-08-14T01:09:06.870Z,20.03
2022-08-14T01:14:25.670Z,20.03
2022-08-14T01:19:47.992Z,20.40
2022-08-14T01:24:51.118Z,20.27
2022-08-14T01:30:04.329Z,20.21
2022-08-14T01:35:18.631Z,20.23
2022-08-14T01:40:49.606Z,20.28
2022-08-14T01:45:57.791Z,20.23
2022-08-14T01:51:19.375Z,20.18
2022-08-14T01:56:40.582Z,20.07
2022-08-14T02:01:57.872Z,20.06
2022-08-14T02:07:02.055Z,20.05
2022-08-14T02:12:09.308Z,19.94
2022-08-14T02:17:12.731Z,19.88
2022-08-14T02:22:32.808Z,19.93
2022-08-14T02:28:25.513Z,19.92
2022-08-14T02:34:14.715Z,19.73
2022-08-14T02:39:22.991Z,19.59
2022-08-14T02:44:29.715Z,19.51
2022-08-14T02:49:34.393Z,19.37
2022-08-14T02:54:35.416Z,19.31
2022-08-14T02:59:38.572Z,19.31
2022-08-14T03:04:40.061Z,19.13
2022-08-14T03:10:24.379Z,19.15
2022-08-14T03:15:28.401Z,19.16
2022-08-14T03:20:29.440Z,18.97
2022-08-14T03:25:32.704Z,18.87
2022-08-14T03:30:39.014Z,18.82
2022-08-14T03:36:05.331Z,18.82
2022-08-14T03:42:35.689Z,18.68
2022-08-14T03:47:50.468Z,18.65
2022-08-14T03:53:00.959Z,18.67
2022-08-14T03:58:02.245Z,18.73
2022-08-14T04:03:07.468Z,18.78
2022-08-14T04:08:22.864Z,18.78
2022-08-14T04:13:33.975Z,18.73
2022-08-14T04:18:39.091Z,18.56
2022-08-14T04:23:41.350Z,18.60
2022-08-14T04:29:07.677Z,18.51
2022-08-14T04:34:24.240Z,18.48
2022-08-14T04:39:47.463Z,18.35
2022-08-14T04:45:00.797Z,18.39
2022-08-14T04:50:04.499Z,18.37
2022-08-14T04:55:05.884Z,18.50
2022-08-14T05:00:16.208Z,18.57
2022-08-14T05:05:20.333Z,18.88
2022-08-14T05:10:25.474Z,18.89
2022-08-14T05:15:28.855Z,19.09
2022-08-14T05:21:59.454Z,19.44
2022-08-14T05:27:02.553Z,19.50
2022-08-14T05:32:06.712Z,20.01
2022-08-14T05:37:07.665Z,20.14
2022-08-14T05:42:09.848Z,20.44
2022-08-14T05:47:23.584Z,20.49
2022-08-14T05:52:38.658Z,20.78
2022-08-14T05:57:59.399Z,20.77
2022-08-14T06:03:06.825Z,20.62
2022-08-14T06:09:10.227Z,20.67
2022-08-14T06:14:12.500Z,20.87
2022-08-14T06:19:23.354Z,20.82
2022-08-14T06:24:24.855Z,21.14
2022-08-14T06:29:27.095Z,21.25
2022-08-14T06:35:03.661Z,21.54
2022-08-14T06:40:25.352Z,21.99
2022-08-14T06:45:30.474Z,22.16
2022-08-14T06:50:31.374Z,22.66
2022-08-14T06:55:37.072Z,22.40
2022-08-14T07:01:01.729Z,22.53
2022-08-14T07:06:03.058Z,22.58
2022-08-14T07:11:13.250Z,22.73
2022-08-14T07:16:14.127Z,22.59
2022-08-14T07:21:20.101Z,22.62
2022-08-14T07:26:20.948Z,22.73
2022-08-14T07:31:23.085Z,22.44
2022-08-14T07:36:27.036Z,22.41
2022-08-14T07:41:35.685Z,22.25
2022-08-14T07:46:37.334Z,22.31
2022-08-14T07:51:41.315Z,22.38
2022-08-14T07:56:47.029Z,22.67
2022-08-14T08:01:52.768Z,22.79
2022-08-14T08:06:54.280Z,22.49
2022-08-14T08:11:57.352Z,22.49
2022-08-14T08:16:59.626Z,22.49
2022-08-14T08:22:02.942Z,22.57
2022-08-14T08:27:16.711Z,22.82
2022-08-14T08:32:18.774Z,22.93
2022-08-14T08:37:20.268Z,23.41
2022-08-14T08:42:31.773Z,23.38
2022-08-14T08:47:40.177Z,23.46
2022-08-14T08:52:52.192Z,23.93
2022-08-14T08:57:54.860Z,23.77
2022-08-14T09:03:11.273Z,24.06
2022-08-14T09:08:30.424Z,24.21
2022-08-14T09:13:33.913Z,24.41
2022-08-14T09:18:35.263Z,24.80
2022-08-14T09:24:28.504Z,24.87
2022-08-14T09:29:33.883Z,24.90
2022-08-14T09:37:36.753Z,25.34
2022-08-14T09:43:00.608Z,25.25
2022-08-14T09:48:01.873Z,25.52
2022-08-14T09:53:05.904Z,26.53
2022-08-14T09:58:23.175Z,26.33
2022-08-14T10:03:33.065Z,25.75
2022-08-14T10:10:27.720Z,26.61
2022-08-14T10:15:45.317Z,26.79
2022-08-14T10:20:57.900Z,27.15
2022-08-14T10:26:05.196Z,27.06
2022-08-14T10:31:26.956Z,27.74
2022-08-14T10:36:45.685Z,27.70
2022-08-14T10:42:02.591Z,27.21
2022-08-14T10:47:39.281Z,27.41
2022-08-14T10:53:08.067Z,27.92
2022-08-14T10:58:10.927Z,27.53
2022-08-14T11:03:26.463Z,27.53
2022-08-14T11:08:32.900Z,27.95
2022-08-14T11:13:37.540Z,28.38
2022-08-14T11:18:40.329Z,28.81
2022-08-14T11:23:45.114Z,28.60
2022-08-14T11:28:49.916Z,28.65
2022-08-14T11:33:56.996Z,28.68
2022-08-14T11:38:58.062Z,29.16
2022-08-14T11:43:59.030Z,28.92
2022-08-14T11:49:03.945Z,29.08
2022-08-14T11:54:08.190Z,29.63
2022-08-14T11:59:26.374Z,29.41
2022-08-14T12:04:34.485Z,29.26
2022-08-14T12:09:38.079Z,29.41
2022-08-14T12:14:57.276Z,29.41
2022-08-14T12:20:05.049Z,28.52
2022-08-14T12:25:11.611Z,28.87
2022-08-14T12:30:14.613Z,29.92
2022-08-14T12:35:25.191Z,30.19
2022-08-14T12:40:28.215Z,30.29
2022-08-14T12:45:33.150Z,29.40
2022-08-14T12:50:39.362Z,30.10
2022-08-14T12:56:21.790Z,29.83
2022-08-14T13:02:00.301Z,29.97
2022-08-14T13:07:09.987Z,29.31
2022-08-14T13:12:32.661Z,29.49
2022-08-14T13:17:47.596Z,29.33
2022-08-14T13:22:54.123Z,29.60
2022-08-14T13:27:59.191Z,29.66
2022-08-14T13:33:01.183Z,30.01
2022-08-14T13:38:02.584Z,30.06
2022-08-14T13:43:05.415Z,30.22
2022-08-14T13:48:06.271Z,29.45
2022-08-14T13:53:12.672Z,29.82
2022-08-14T13:58:34.058Z,29.89
2022-08-14T14:03:38.611Z,30.16
2022-08-14T14:08:47.868Z,30.28
2022-08-14T14:13:55.482Z,29.61
2022-08-14T14:19:06.701Z,30.06
2022-08-14T14:24:14.865Z,30.20
2022-08-14T14:29:26.210Z,29.70
2022-08-14T14:34:30.813Z,29.60
2022-08-14T14:39:37.665Z,29.05
2022-08-14T14:45:54.825Z,29.09
2022-08-14T14:51:00.997Z,28.53
2022-08-14T14:56:49.987Z,29.03
2022-08-14T15:01:58.681Z,29.26
2022-08-14T15:06:59.904Z,29.31
2022-08-14T15:12:02.093Z,28.96
2022-08-14T15:17:17.943Z,29.15
2022-08-14T15:22:20.066Z,29.41
2022-08-14T15:27:26.534Z,29.39
2022-08-14T15:32:29.137Z,29.03
2022-08-14T15:37:42.432Z,29.16
2022-08-14T15:42:45.427Z,29.03
2022-08-14T15:47:46.292Z,28.93
2022-08-14T15:52:52.167Z,28.84
2022-08-14T15:58:03.111Z,28.72
2022-08-14T16:03:10.840Z,28.50
2022-08-14T16:08:24.348Z,28.58
2022-08-14T16:13:41.261Z,28.54
2022-08-14T16:18:43.834Z,28.44
2022-08-14T16:23:46.070Z,28.40
2022-08-14T16:29:04.863Z,28.47
2022-08-14T16:34:44.434Z,28.44
2022-08-14T16:39:48.816Z,28.43
2022-08-14T16:44:51.611Z,28.40
2022-08-14T16:50:04.562Z,28.30
2022-08-14T16:55:11.842Z,28.17
2022-08-14T17:00:43.600Z,28.33
2022-08-14T17:05:46.960Z,28.30
2022-08-14T17:11:10.581Z,28.22
2022-08-14T17:16:25.280Z,28.06
2022-08-14T17:21:41.219Z,28.06
2022-08-14T17:26:45.545Z,27.98
2022-08-14T17:32:02.244Z,28.00
2022-08-14T17:37:03.670Z,27.91
2022-08-14T17:42:13.398Z,27.68
2022-08-14T17:47:18.189Z,27.65
2022-08-14T17:52:36.017Z,27.71
2022-08-14T17:57:42.552Z,27.67
2022-08-14T18:02:51.189Z,27.48
2022-08-14T18:08:31.123Z,27.19
2022-08-14T18:13:51.204Z,26.84
2022-08-14T18:18:54.138Z,26.57
2022-08-14T18:23:55.685Z,26.20
2022-08-14T18:28:59.396Z,26.02
2022-08-14T18:34:31.016Z,25.75
2022-08-14T18:40:02.791Z,25.45
2022-08-14T18:45:15.358Z,25.19
2022-08-14T18:50:26.423Z,25.05
2022-08-14T18:55:53.433Z,24.84
2022-08-14T19:00:58.774Z,24.69
2022-08-14T19:06:05.185Z,24.57
2022-08-14T19:11:44.258Z,24.32
2022-08-14T19:16:48.338Z,24.17
2022-08-14T19:21:56.057Z,24.22
2022-08-14T19:27:22.966Z,24.00
2022-08-14T19:32:40.484Z,23.88
2022-08-14T19:37:54.635Z,23.63
2022-08-14T19:42:58.326Z,23.49
2022-08-14T19:48:03.867Z,23.18
2022-08-14T19:53:12.061Z,22.98
2022-08-14T19:58:26.036Z,22.87
2022-08-14T20:04:00.469Z,22.86
2022-08-14T20:11:04.010Z,22.75
2022-08-14T20:16:20.943Z,22.68
2022-08-14T20:21:36.463Z,22.51
2022-08-14T20:27:21.773Z,22.37
2022-08-14T20:32:31.950Z,22.30
2022-08-14T20:37:36.062Z,22.18
2022-08-14T20:42:55.598Z,22.26
2022-08-14T20:48:01.875Z,22.30
2022-08-14T20:56:41.718Z,22.20
2022-08-14T21:01:45.133Z,22.21
2022-08-14T21:07:23.161Z,22.34
2022-08-14T21:12:34.379Z,22.50
2022-08-14T21:17:37.589Z,22.56
2022-08-14T21:22:42.773Z,22.70
2022-08-14T21:27:56.725Z,22.62
2022-08-14T21:32:58.952Z,22.36
2022-08-14T21:38:01.005Z,22.23
2022-08-14T21:43:01.856Z,22.24
2022-08-14T21:48:10.540Z,22.41
2022-08-14T21:53:13.714Z,22.61
2022-08-14T21:58:52.254Z,22.79
2022-08-14T22:03:59.274Z,22.98
2022-08-14T22:09:00.989Z,23.21
2022-08-14T22:14:25.219Z,23.30
2022-08-14T22:19:34.693Z,23.32
2022-08-14T22:24:53.513Z,23.20
2022-08-14T22:30:04.098Z,23.16
2022-08-14T22:35:09.259Z,23.06
2022-08-14T22:40:48.395Z,22.75
2022-08-14T22:46:14.965Z,22.68
2022-08-14T22:51:22.826Z,22.76
2022-08-14T22:56:30.118Z,22.92
2022-08-14T23:01:55.763Z,22.62
2022-08-14T23:07:03.096Z,22.46
2022-08-14T23:12:27.658Z,22.47
2022-08-14T23:17:38.970Z,22.62
2022-08-14T23:22:42.242Z,22.61
2022-08-14T23:28:02.669Z,22.67
2022-08-14T23:33:04.723Z,22.72
2022-08-14T23:38:05.613Z,22.66
2022-08-14T23:43:14.801Z,22.65
2022-08-14T23:48:24.819Z,22.63
2022-08-14T23:53:48.794Z,22.66
2022-08-14T23:58:52.873Z,22.65
